Flight Track Log - Related Links

Times and Time Zones

All times are in EDT time to prevent confusion due to time zone crossing. See the UAL4336 flight status page for this flight to view local times or setup timezone preferences in your user account.

Time Position Orientation Groundspeed Altitude Reporting Facility
EDT Latitude Longitude Course Direction KTS MPH feet Rate Location/Type
Tue 09:45:02 AM 29.9661 -95.3456 90° East 151 174 700  Level Houston Center
Tue 09:45:51 AM 29.9597 -95.2981 99° East 219 252 2,400 1,565 Climbing Houston Center
Tue 09:46:11 AM 29.9600 -95.2789 89° East 205 236 2,500 2,618 Climbing Houston Center
Tue 09:46:46 AM 29.9717 -95.2242 76° East 264 304 4,800 3,000 Climbing Houston Center
Tue 09:47:13 AM 29.9756 -95.1986 80° East 289 333 5,600 2,656 Climbing Houston Center
Tue 09:47:47 AM 29.9844 -95.1358 81° East 280 322 7,500 2,613 Climbing Houston Center
Tue 09:48:00 AM 29.9834 -94.8732 90° East  Level FlightAware Approximate
Tue 09:48:15 AM 29.9889 -95.1111 78° East 277 319 8,300  Level Houston Center
Tue 09:49:00 AM 29.9834 -94.7581 90° East  Level FlightAware Approximate
Tue 09:49:16 AM 29.9886 -95.0169 90° East 289 333 10,800  Level Houston Center
Tue 09:50:00 AM 29.9833 -94.6431 90° East  Level FlightAware Approximate
Tue 09:50:18 AM 29.9906 -94.9131 89° East 313 360 11,900  Level Houston Center
Tue 09:51:20 AM 29.9917 -94.7708 89° East 359 413 13,100 1,016 Climbing Houston Center
Tue 09:52:22 AM 29.9928 -94.6428 89° East 385 443 14,000 927 Climbing Houston Center
Tue 09:53:23 AM 29.9939 -94.5117 89° East 403 464 15,000 976 Climbing Houston Center
Tue 09:54:25 AM 29.9967 -94.3742 89° East 412 474 16,000 919 Climbing Houston Center
Tue 09:55:27 AM 30.0042 -94.2386 86° East 423 487 16,900 871 Climbing Houston Center
Tue 09:56:29 AM 30.0217 -94.1022 82° East 431 496 17,800 878 Climbing Houston Center
Tue 09:57:30 AM 30.0392 -93.9647 82° East 436 502 18,700 927 Climbing Houston Center
Tue 09:58:32 AM 30.0553 -93.8247 82° East 441 507 19,700 1,016 Climbing Houston Center
Tue 09:59:34 AM 30.0750 -93.6556 82° East 448 516 20,800 1,016 Climbing Houston Center
Tue 10:00:36 AM 30.0917 -93.5133 82° East 451 519 21,800 919 Climbing Houston Center
Tue 10:01:38 AM 30.1086 -93.3681 82° East 461 531 22,700 585 Climbing Houston Center
Tue 10:02:39 AM 30.1264 -93.2225 82° East 464 534 23,000 49 Climbing Houston Center
Tue 10:03:41 AM 30.1519 -93.0419 81° East 478 550 22,800 -677 Descending Houston Center
Tue 10:04:43 AM 30.1811 -92.8972 77° East 465 535 21,600 -1,161 Descending Houston Center
Tue 10:05:45 AM 30.2089 -92.7533 77° East 460 529 20,400 -1,161 Descending Houston Center
Tue 10:06:47 AM 30.2369 -92.6108 77° East 457 526 19,200 -683 Descending Houston Center
Tue 10:07:48 AM 30.2639 -92.4717 77° East 447 514 19,000 -98 Descending Houston Center
Tue 10:08:50 AM 30.2936 -92.3147 78° East 446 513 19,000 -629 Level Houston Center
Tue 10:09:52 AM 30.3192 -92.1869 77° East 412 474 17,700 -1,500 Descending Houston Center
Tue 10:10:54 AM 30.3408 -92.0658 78° East 390 449 15,900 -1,742 Descending Houston Center
Tue 10:11:56 AM 30.3642 -91.9447 77° East 387 445 14,100 -1,984 Descending Houston Center
Tue 10:12:58 AM 30.3917 -91.7975 78° East 391 450 11,800 -1,500 Descending Houston Center
Tue 10:14:00 AM 30.4117 -91.6886 78° East 359 413 11,000 -387 Descending Houston Center
Tue 10:15:02 AM 30.4342 -91.5797 76° East 352 405 11,000 -532 Level Houston Center
Tue 10:16:04 AM 30.4836 -91.5028 53° Northeast 309 356 9,900 -1,355 Descending Houston Center
Tue 10:17:06 AM 30.5300 -91.4328 52° Northeast 292 336 8,200 -1,694 Descending Houston Center
Tue 10:18:08 AM 30.5744 -91.3661 52° Northeast 274 315 6,400 -2,129 Descending Houston Center
Tue 10:19:10 AM 30.6189 -91.3008 52° Northeast 266 306 3,800 -2,516 Descending Houston Center
Tue 10:21:00 AM 30.5329 -91.1499 79° East  Level Estimated
Tue 10:28:00 AM 30.5329 -91.1499 79° East  Level Estimated

Login

Don't have an account? Register now (free) for customized features, flight alerts, and more!